createdAt,value
2022-10-19T01:59:39.899Z,2.63
2022-10-19T02:04:45.324Z,2.90
2022-10-19T02:09:48.886Z,3.20
2022-10-19T02:14:57.923Z,3.28
2022-10-19T02:20:01.982Z,3.22
2022-10-19T02:25:06.761Z,3.20
2022-10-19T02:30:13.259Z,3.57
2022-10-19T02:35:16.997Z,2.60
2022-10-19T02:40:20.659Z,3.03
2022-10-19T02:45:28.627Z,2.40
2022-10-19T02:50:32.334Z,2.85
2022-10-19T02:55:36.027Z,3.75
2022-10-19T03:00:40.625Z,2.60
2022-10-19T03:05:43.909Z,2.43
2022-10-19T03:10:47.179Z,2.20
2022-10-19T03:15:51.971Z,2.83
2022-10-19T03:21:02.806Z,2.17
2022-10-19T03:26:09.986Z,2.70
2022-10-19T03:31:16.773Z,2.00
2022-10-19T03:36:22.424Z,1.60
2022-10-19T03:41:27.715Z,1.30
2022-10-19T03:46:32.901Z,1.55
2022-10-19T03:51:36.419Z,1.40
2022-10-19T03:56:39.710Z,1.13
2022-10-19T04:01:45.786Z,2.28
2022-10-19T04:06:50.512Z,2.00
2022-10-19T04:11:53.790Z,1.35
2022-10-19T04:16:58.296Z,1.20
2022-10-19T04:22:01.606Z,1.10
2022-10-19T04:27:04.757Z,1.33
2022-10-19T04:32:09.543Z,1.67
2022-10-19T04:37:14.721Z,2.27
2022-10-19T04:42:21.080Z,1.30
2022-10-19T04:47:26.311Z,1.50
2022-10-19T04:52:29.815Z,1.40
2022-10-19T04:57:33.318Z,1.48
2022-10-19T05:02:43.064Z,1.60
2022-10-19T05:07:48.469Z,2.20
2022-10-19T05:17:56.683Z,1.35
2022-10-19T05:23:04.576Z,1.10
2022-10-19T05:28:10.393Z,1.50
2022-10-19T05:33:15.628Z,1.35
2022-10-19T05:38:18.921Z,1.48
2022-10-19T05:43:23.973Z,1.00
2022-10-19T05:48:33.040Z,1.13
2022-10-19T05:53:40.076Z,1.25
2022-10-19T05:58:43.988Z,1.13
2022-10-19T06:03:52.665Z,1.52
2022-10-19T06:08:59.004Z,1.15
2022-10-19T06:14:05.869Z,1.90
2022-10-19T06:19:10.678Z,1.00
2022-10-19T06:24:14.445Z,1.00
2022-10-19T06:29:18.280Z,1.40
2022-10-19T06:34:22.971Z,0.98
2022-10-19T06:39:26.386Z,1.63
2022-10-19T06:44:29.841Z,1.05
2022-10-19T06:49:36.036Z,1.00
2022-10-19T06:54:39.438Z,1.50
2022-10-19T07:14:49.135Z,0.93
2022-10-19T07:19:53.001Z,1.08
2022-10-19T07:24:56.304Z,1.40
2022-10-19T07:30:01.582Z,1.10
2022-10-19T07:35:06.560Z,1.20
2022-10-19T07:40:11.312Z,1.00
2022-10-19T07:45:16.537Z,0.90
2022-10-19T07:55:23.550Z,0.68
2022-10-19T08:00:28.450Z,0.80
2022-10-19T08:05:32.756Z,0.93
2022-10-19T08:10:36.208Z,0.73
2022-10-19T08:15:41.322Z,0.80
2022-10-19T08:30:14.231Z,1.20
2022-10-19T08:35:17.465Z,1.40
2022-10-19T08:40:24.970Z,0.95
2022-10-19T08:50:50.678Z,0.80
2022-10-19T08:56:12.393Z,1.00
2022-10-19T09:01:36.908Z,0.80
2022-10-19T09:07:00.273Z,0.60
2022-10-19T09:12:06.956Z,1.40
2022-10-19T09:17:14.249Z,1.40
2022-10-19T09:22:20.891Z,0.65
2022-10-19T09:27:26.217Z,0.88
2022-10-19T09:32:34.014Z,1.08
2022-10-19T09:37:43.966Z,1.52
2022-10-19T09:42:51.014Z,1.10
2022-10-19T09:47:55.525Z,0.95
2022-10-19T09:53:01.026Z,1.10
2022-10-19T10:08:29.756Z,0.80
2022-10-19T10:13:38.197Z,0.90
2022-10-19T10:18:53.836Z,0.52
2022-10-19T10:24:03.176Z,0.40
2022-10-19T10:29:19.421Z,0.82
2022-10-19T10:34:45.580Z,0.65
2022-10-19T10:39:57.674Z,0.30
2022-10-19T10:45:04.979Z,0.60
2022-10-19T10:50:19.287Z,0.80
2022-10-19T10:55:22.812Z,0.93
2022-10-19T11:00:26.159Z,0.80
2022-10-19T11:05:33.527Z,0.95
2022-10-19T11:10:43.444Z,0.55
2022-10-19T11:15:53.647Z,0.60
2022-10-19T11:21:05.757Z,0.50
2022-10-19T11:26:24.179Z,0.43
2022-10-19T11:31:36.415Z,0.60
2022-10-19T11:36:50.050Z,0.50
2022-10-19T11:42:01.456Z,0.60
2022-10-19T11:47:21.300Z,0.50
2022-10-19T11:52:35.773Z,0.50
2022-10-19T11:57:46.170Z,0.40
2022-10-19T12:03:25.819Z,0.52
2022-10-19T12:08:41.280Z,0.77
2022-10-19T13:19:22.036Z,0.65
2022-10-19T13:24:34.920Z,0.57
2022-10-19T13:29:44.842Z,0.80
2022-10-19T13:34:49.644Z,0.70
2022-10-19T13:39:53.877Z,0.90
2022-10-19T13:44:57.181Z,0.60
2022-10-19T13:50:15.260Z,0.50
2022-10-19T13:55:30.950Z,0.77
2022-10-19T14:00:49.548Z,0.77
2022-10-19T14:06:14.644Z,0.80
2022-10-19T14:16:24.515Z,0.60
2022-10-19T14:26:36.321Z,0.60
2022-10-19T14:31:39.782Z,0.70
2022-10-19T14:36:47.894Z,0.68
2022-10-19T14:41:54.746Z,0.50
2022-10-19T14:47:00.576Z,1.10
2022-10-19T14:52:05.322Z,0.60
2022-10-19T14:57:13.572Z,0.80
2022-10-19T15:02:20.940Z,0.70
2022-10-19T15:07:30.376Z,0.57
2022-10-19T15:12:37.786Z,0.50
2022-10-19T15:17:53.162Z,0.45
2022-10-19T15:22:59.091Z,1.00
2022-10-19T16:33:07.921Z,2.13
2022-10-19T16:38:11.387Z,1.55
2022-10-19T16:43:16.744Z,2.42
2022-10-19T16:48:23.946Z,8.82
2022-10-19T16:53:27.963Z,6.28
2022-10-19T16:58:32.658Z,4.90
2022-10-19T17:03:36.176Z,2.60
2022-10-19T17:09:02.703Z,2.25
2022-10-19T17:14:06.121Z,1.70
2022-10-19T17:19:10.791Z,1.08
2022-10-19T17:24:21.163Z,1.57
2022-10-19T17:29:26.655Z,1.40
2022-10-19T17:34:29.889Z,1.65
2022-10-19T17:39:34.022Z,2.17
2022-10-19T17:44:39.665Z,4.00
2022-10-19T17:49:43.819Z,4.10
2022-10-19T17:54:54.549Z,5.75
2022-10-19T18:00:14.589Z,7.10
2022-10-19T18:05:19.559Z,6.55
2022-10-19T18:10:22.851Z,5.75
2022-10-19T18:15:27.940Z,5.22
2022-10-19T18:20:32.129Z,3.22
2022-10-19T18:25:53.521Z,2.80
2022-10-19T18:31:05.241Z,2.63
2022-10-19T18:36:10.933Z,3.13
2022-10-19T18:41:14.687Z,2.92
2022-10-19T18:46:20.818Z,2.83
2022-10-19T18:51:24.407Z,2.30
2022-10-19T18:56:29.430Z,3.25
2022-10-19T19:01:34.166Z,4.50
2022-10-19T19:06:38.716Z,6.57
2022-10-19T19:11:42.342Z,5.78
2022-10-19T19:16:47.395Z,6.00
2022-10-19T19:21:51.788Z,4.25
2022-10-19T19:26:54.991Z,4.45
2022-10-19T19:32:00.004Z,4.85
2022-10-19T19:37:07.328Z,5.50
2022-10-19T19:42:13.639Z,6.03
2022-10-19T19:47:19.464Z,3.28
2022-10-19T19:52:22.745Z,2.75
2022-10-19T19:57:26.005Z,2.85
2022-10-19T20:02:32.887Z,3.15
2022-10-19T20:07:36.219Z,3.55
2022-10-19T20:12:39.592Z,3.60
2022-10-19T20:17:44.402Z,3.90
2022-10-19T20:22:51.249Z,3.25
2022-10-19T20:27:54.413Z,3.78
2022-10-19T20:32:59.635Z,3.50
2022-10-19T20:38:03.876Z,3.58
2022-10-19T20:43:07.032Z,3.67
2022-10-19T20:48:11.553Z,4.63
2022-10-19T20:53:14.750Z,3.93
2022-10-19T20:58:17.916Z,4.03
2022-10-19T21:03:23.847Z,4.53
2022-10-19T21:08:27.021Z,4.32
2022-10-19T21:13:30.161Z,4.63
2022-10-19T21:18:34.673Z,4.47
2022-10-19T21:31:59.320Z,4.40
2022-10-19T21:37:04.061Z,4.60
2022-10-19T21:42:07.171Z,4.32
2022-10-19T21:47:10.248Z,4.35
2022-10-19T22:22:27.367Z,3.80
2022-10-19T22:27:29.630Z,3.53
2022-10-19T22:32:33.636Z,3.10
2022-10-19T22:37:38.432Z,2.80
2022-10-19T22:42:41.888Z,2.77
2022-10-19T22:47:45.490Z,3.88
2022-10-19T22:52:50.290Z,3.17
2022-10-19T22:57:53.380Z,3.40
2022-10-19T23:02:56.629Z,3.85
2022-10-19T23:08:01.278Z,2.63
2022-10-19T23:13:04.457Z,2.83
2022-10-19T23:18:07.799Z,2.67
2022-10-19T23:23:12.756Z,2.80
2022-10-19T23:28:15.981Z,4.00
2022-10-19T23:33:19.377Z,2.83
2022-10-19T23:38:23.842Z,3.08
2022-10-19T23:43:27.158Z,3.23
2022-10-19T23:48:30.499Z,2.80
2022-10-19T23:53:40.988Z,2.75
2022-10-19T23:58:45.054Z,2.67
